»·PEaware :: SWA1839 KSJC-KPHX

SWA1839 :: KSJC-KPHX

FLIGHT INFORMATION

Flight Status: Arrived
Operator:
Southwest Airlines
More flights by this operator :: More flights under this callsign
Pilot: Will K. (13011)
Aircraft: BOEING 737-700
(B737)
More flights by this aircraft type
Origin: KSJC Mineta San Jose Intl
United States
Destination: KPHX Phoenix Sky Harbor Intl
United States
More flights between these airports :: More routes between these airports
Route: TECKY3 LOSHN BOILE BLH HYDRR1
File this flight plan on PilotEdge
Remarks:
Altitude:
(Current/Filed)
35,000ft
Speed:
(Current/Filed)
320kts
Departed: 30-Apr-18 07:46 PM
Arrived: 30-Apr-18 09:12 PM
Distance/Time
Traveled:
539nm/1:26
Distance/Time
To Go:
Arrived

Flight Plot

Page will automatically refresh every two minutes.

Flight plan parsing failed; only flown route is shown


Map Options




Map Legend


Flown Route
Filed Route
Departure Airport
Arrival Airport
Navaid (VOR, NDB)
Fix

Horizontal Profiles

Position Reports

Time Latitude Longitude Heading Altitude Ground
Speed
30-Apr-18 19:15 37.370277 -121.931418 48 70ft 0kts
30-Apr-18 19:16 37.370277 -121.931418 48 70ft 0kts
30-Apr-18 19:17 37.370277 -121.931418 48 70ft 0kts
30-Apr-18 19:18 37.370277 -121.931418 48 70ft 0kts
30-Apr-18 19:19 37.370277 -121.931418 48 70ft 0kts
30-Apr-18 19:20 37.370277 -121.931418 48 70ft 0kts
30-Apr-18 19:21 37.370277 -121.931418 48 70ft 0kts
30-Apr-18 19:22 37.370277 -121.931418 48 70ft 0kts
30-Apr-18 19:23 37.370277 -121.931418 48 70ft 0kts
30-Apr-18 19:24 37.370277 -121.931418 48 70ft 0kts
30-Apr-18 19:25 37.370277 -121.931418 48 70ft 0kts
30-Apr-18 19:26 37.370277 -121.931418 48 70ft 0kts
30-Apr-18 19:27 37.370277 -121.931418 48 70ft 0kts
30-Apr-18 19:28 37.370277 -121.931418 48 70ft 0kts
30-Apr-18 19:29 37.370277 -121.931418 48 70ft 0kts
30-Apr-18 19:30 37.370277 -121.931418 48 70ft 0kts
30-Apr-18 19:31 37.370196 -121.931538 52 70ft 2kts
30-Apr-18 19:32 37.370097 -121.932213 138 70ft 2kts
30-Apr-18 19:33 37.370142 -121.932262 138 70ft 0kts
30-Apr-18 19:34 37.370142 -121.932262 138 70ft 0kts
30-Apr-18 19:35 37.370142 -121.932262 138 70ft 0kts
30-Apr-18 19:36 37.370142 -121.932262 138 70ft 0kts
30-Apr-18 19:37 37.369848 -121.931936 138 70ft 14kts
30-Apr-18 19:38 37.366159 -121.927897 138 70ft 16kts
30-Apr-18 19:39 37.363081 -121.924531 137 70ft 21kts
30-Apr-18 19:40 37.359452 -121.920549 140 70ft 19kts
30-Apr-18 19:41 37.356098 -121.916870 137 70ft 17kts
30-Apr-18 19:42 37.353327 -121.914263 200 70ft 8kts
30-Apr-18 19:43 37.353134 -121.914425 225 70ft 0kts
30-Apr-18 19:44 37.352596 -121.915378 264 70ft 7kts
30-Apr-18 19:45 37.363617 -121.927790 317 214ft 149kts
30-Apr-18 19:46 37.400793 -121.967146 322 2454ft 219kts
30-Apr-18 19:47 37.451633 -121.937422 85 5312ft 253kts
30-Apr-18 19:48 37.402622 -121.880546 142 8312ft 264kts
30-Apr-18 19:49 37.348725 -121.813658 133 11502ft 280kts
30-Apr-18 19:50 37.287281 -121.740399 137 13578ft 344kts
30-Apr-18 19:51 37.210532 -121.653751 138 16327ft 384kts
30-Apr-18 19:52 37.128658 -121.561453 138 19400ft 407kts
30-Apr-18 19:53 37.043444 -121.462331 133 22131ft 430kts
30-Apr-18 19:54 36.961040 -121.348381 133 24482ft 450kts
30-Apr-18 19:55 36.875155 -121.231035 134 25027ft 459kts
30-Apr-18 19:56 36.788605 -121.112641 134 25951ft 469kts
30-Apr-18 19:57 36.695892 -120.987264 135 26866ft 507kts
30-Apr-18 19:58 36.596196 -120.861833 140 28653ft 511kts
30-Apr-18 19:59 36.490982 -120.741137 140 30450ft 515kts
30-Apr-18 20:00 36.386152 -120.619757 141 32204ft 516kts
30-Apr-18 20:01 36.281077 -120.497775 142 33713ft 519kts
30-Apr-18 20:02 36.175219 -120.375623 142 34924ft 521kts
30-Apr-18 20:03 36.069575 -120.254008 142 34939ft 517kts
30-Apr-18 20:04 35.964218 -120.133300 143 34939ft 518kts
30-Apr-18 20:05 35.858232 -120.012583 142 34939ft 518kts
30-Apr-18 20:06 35.761197 -119.879811 135 34931ft 523kts
30-Apr-18 20:07 35.666176 -119.744032 135 34924ft 521kts
30-Apr-18 20:08 35.571471 -119.609673 135 34922ft 520kts
30-Apr-18 20:09 35.475194 -119.473800 136 34917ft 532kts
30-Apr-18 20:11 35.377972 -119.337424 136 34921ft 529kts
30-Apr-18 20:12 35.281670 -119.202960 136 34914ft 528kts
30-Apr-18 20:13 35.184892 -119.068367 136 34920ft 526kts
30-Apr-18 20:14 35.087877 -118.933977 137 34933ft 525kts
30-Apr-18 20:15 34.991232 -118.800619 137 34950ft 524kts
30-Apr-18 20:16 34.894327 -118.667394 137 34957ft 523kts
30-Apr-18 20:17 34.797763 -118.535186 137 34957ft 524kts
30-Apr-18 20:18 34.701136 -118.403375 137 34945ft 522kts
30-Apr-18 20:19 34.604761 -118.270892 133 34937ft 525kts
30-Apr-18 20:20 34.539611 -118.110252 111 34943ft 539kts
30-Apr-18 20:21 34.493126 -117.936822 111 34944ft 539kts
30-Apr-18 20:22 34.446789 -117.764395 109 34959ft 539kts
30-Apr-18 20:23 34.402610 -117.591163 111 34946ft 538kts
30-Apr-18 20:24 34.355606 -117.419599 111 34931ft 537kts
30-Apr-18 20:25 34.308502 -117.248636 111 34938ft 537kts
30-Apr-18 20:26 34.261772 -117.077572 111 34955ft 535kts
30-Apr-18 20:27 34.214601 -116.906710 112 34970ft 534kts
30-Apr-18 20:28 34.167342 -116.736899 112 34965ft 534kts
30-Apr-18 20:29 34.119660 -116.566689 112 34925ft 534kts
30-Apr-18 20:30 34.071923 -116.397315 113 34870ft 534kts
30-Apr-18 20:31 34.023897 -116.227949 113 34843ft 534kts
30-Apr-18 20:32 33.975480 -116.058229 113 34827ft 534kts
30-Apr-18 20:33 33.927017 -115.889322 113 34814ft 534kts
30-Apr-18 20:34 33.878256 -115.720393 113 34804ft 535kts
30-Apr-18 20:34 33.837350 -115.579390 114 34793ft 534kts
30-Apr-18 20:35 33.788114 -115.410644 114 34076ft 535kts
30-Apr-18 20:36 33.738353 -115.241072 113 33075ft 538kts
30-Apr-18 20:37 33.688513 -115.071556 113 32077ft 540kts
30-Apr-18 20:38 33.638049 -114.901647 113 31079ft 542kts
30-Apr-18 20:39 33.588917 -114.731208 108 29437ft 535kts
30-Apr-18 20:40 33.555582 -114.556482 104 25617ft 533kts
30-Apr-18 20:41 33.524600 -114.394659 105 24927ft 469kts
30-Apr-18 20:42 33.494756 -114.242600 105 24774ft 468kts
30-Apr-18 20:43 33.464584 -114.091137 105 24778ft 468kts
30-Apr-18 20:44 33.434233 -113.939846 106 24784ft 466kts
30-Apr-18 20:45 33.403940 -113.788639 105 24790ft 465kts
30-Apr-18 20:46 33.375028 -113.645426 106 22898ft 429kts
30-Apr-18 20:47 33.347294 -113.509859 106 20308ft 407kts
30-Apr-18 20:48 33.323235 -113.380168 104 19088ft 400kts
30-Apr-18 20:49 33.301078 -113.251546 104 18047ft 391kts
30-Apr-18 20:50 33.282019 -113.123456 102 17231ft 387kts
30-Apr-18 20:51 33.275477 -112.997166 88 16230ft 379kts
30-Apr-18 20:52 33.279250 -112.872760 90 15243ft 370kts
30-Apr-18 20:53 33.286255 -112.750887 84 14275ft 364kts
30-Apr-18 20:54 33.298352 -112.632758 85 13329ft 350kts
30-Apr-18 20:55 33.308795 -112.521546 86 12440ft 325kts
30-Apr-18 20:56 33.318444 -112.414940 86 11588ft 320kts
30-Apr-18 20:57 33.328099 -112.309883 86 10755ft 318kts
30-Apr-18 20:58 33.337274 -112.208551 86 9262ft 294kts
30-Apr-18 20:59 33.345309 -112.118836 87 9002ft 256kts
30-Apr-18 21:00 33.347437 -112.034115 95 8692ft 251kts
30-Apr-18 21:01 33.345855 -111.949964 94 7372ft 250kts
30-Apr-18 21:02 33.346237 -111.866909 93 6964ft 247kts
30-Apr-18 21:03 33.347129 -111.785039 92 5701ft 245kts
30-Apr-18 21:04 33.387413 -111.735567 2 5061ft 226kts
30-Apr-18 21:05 33.433818 -111.758350 268 4963ft 177kts
30-Apr-18 21:06 33.429941 -111.811454 260 4219ft 140kts
30-Apr-18 21:07 33.428819 -111.856332 265 3475ft 134kts
30-Apr-18 21:08 33.428784 -111.900885 265 2766ft 132kts
30-Apr-18 21:09 33.428809 -111.944570 266 2068ft 128kts
30-Apr-18 21:10 33.428889 -111.986999 266 1411ft 126kts
30-Apr-18 21:11 33.428818 -112.016333 268 1143ft 22kts
30-Apr-18 21:12 33.429384 -112.021742 315 1143ft 8kts
30-Apr-18 21:13 33.429927 -112.019154 88 1143ft 17kts
30-Apr-18 21:14 33.430285 -112.016029 46 1143ft 3kts
30-Apr-18 21:15 33.432324 -112.015186 27 1143ft 9kts
30-Apr-18 21:16 33.433922 -112.014644 86 1143ft 4kts
30-Apr-18 21:17 33.433927 -112.014413 90 1143ft 0kts
30-Apr-18 21:18 33.433927 -112.014413 90 1143ft 0kts
30-Apr-18 21:19 33.433927 -112.014413 90 1143ft 0kts

Navigation Log

Ident Type
Flight plan parsing failed, navigation log unavailable